To NAV CANADA Home Page Login to a new session Search on AWWS site Disclaimer Vers la page française équivalente Tips FAQ What's new on the site To the Forecasts and Observations / NOTAM section To "File a Flight Plan" website Publications and other links Update of the User's profile FIC Telephone Numbers My Weather Data Folder Route Weather Data Regional Weather Data Local Weather Data To the Forecasts and Observations / NOTAM section
Request Generated 03/19/2019 at 23:06:44 UTC . Weather information available at that time is displayed.

METAR/TAF

KINDERSLEY REGIONAL/SK    

METAR CYKY 192300Z 28016G22KT 15SM FEW250 12/05 A3011 RMK CI1 CI TR SLP219 DENSITY ALT 2300FT=
METAR CYKY 192200Z 28019KT 15SM FEW260 12/04 A3011 RMK CI2 SLP220=
METAR CYKY 192100Z 27013G24KT 15SM FEW250 11/04 A3011 RMK CI1 CI TR SLP221=

CYKY - No TAF is issued for this station

Your time UTC time
Weather data provided by Environment Canada and NAV CANADA